KOCW/OCW METAR and TAF weather

Enter ICAO airport designator
Station Type Date Time Source
KOCW METAR 2020/07/11 02:15 UTC NOAA

KOCW 110215Z AUTO 18006KT 10SM CLR 27/24 A2986 RMK AO2 T02700235


Station Type Date Time Source
KOCW Decoded METAR 2020/07/11 02:15 UTC NOAA

Washington, Warren Field Airport, NC, United States (KOCW) 35-34-14N 077-02-59W
Jul 10, 2020 - 10:15 PM EDT / 2020.07.11 0215 UTC
Wind: from the S (180 degrees) at 7 MPH (6 KT):0
Visibility: 10 mile(s):0
Sky conditions: clear
Temperature: 80.6 F (27.0 C)
Dew Point: 74.3 F (23.5 C)
Relative Humidity: 81%
Pressure (altimeter): 29.86 in. Hg (1011 hPa)
ob: KOCW 110215Z AUTO 18006KT 10SM CLR 27/24 A2986 RMK AO2 T02700235
cycle: 2

Station Type Date Time Source
KOCW TAF UTC NOAA

Error!

Example: see airport list